createdAt,value
2018-04-10T00:01:15.500Z,94576.91
2018-04-10T00:03:43.899Z,94583.89
2018-04-10T00:06:12.305Z,94576.98
2018-04-10T00:08:40.757Z,94580.97
2018-04-10T00:11:09.194Z,94580.97
2018-04-10T00:13:37.618Z,94580.88
2018-04-10T00:16:06.031Z,94584.05
2018-04-10T00:18:34.446Z,94577.05
2018-04-10T00:21:02.850Z,94576.27
2018-04-10T00:23:31.303Z,94576.22
2018-04-10T00:25:59.718Z,94576.07
2018-04-10T00:28:28.478Z,94566.86
2018-04-10T00:30:56.903Z,94570.69
2018-04-10T00:33:25.380Z,94564.47
2018-04-10T00:35:53.762Z,94531.73
2018-04-10T00:38:22.207Z,94577.87
2018-04-10T00:40:50.630Z,94568.50
2018-04-10T00:43:19.067Z,94570.27
2018-04-10T00:45:47.510Z,94569.17
2018-04-10T00:48:15.945Z,94567.01
2018-04-10T00:50:44.396Z,94572.14
2018-04-10T00:53:36.885Z,94575.67
2018-04-10T00:56:05.297Z,94574.91
2018-04-10T00:58:33.777Z,94579.84
2018-04-10T01:01:02.160Z,94574.55
2018-04-10T01:03:30.567Z,94568.86
2018-04-10T01:05:58.988Z,94578.80
2018-04-10T01:08:27.447Z,94572.25
2018-04-10T01:10:55.843Z,94566.42
2018-04-10T01:13:24.274Z,94564.72
2018-04-10T01:15:52.668Z,94559.02
2018-04-10T01:18:21.087Z,94545.95
2018-04-10T01:20:49.506Z,94559.08
2018-04-10T01:23:18.286Z,94563.94
2018-04-10T01:25:46.734Z,94555.30
2018-04-10T01:28:15.204Z,94556.81
2018-04-10T01:30:43.627Z,94551.05
2018-04-10T01:33:12.078Z,94545.00
2018-04-10T01:35:40.555Z,94547.55
2018-04-10T01:38:08.979Z,94542.98
2018-04-10T01:40:37.423Z,94540.81
2018-04-10T01:43:05.857Z,94541.82
2018-04-10T01:45:34.305Z,94538.56
2018-04-10T01:48:02.691Z,94545.59
2018-04-10T01:50:31.187Z,94539.01
2018-04-10T01:52:59.622Z,94532.56
2018-04-10T01:55:28.040Z,94511.17
2018-04-10T01:57:56.428Z,94524.50
2018-04-10T02:00:24.869Z,94532.87
2018-04-10T02:02:53.326Z,94543.61
2018-04-10T02:05:21.769Z,94546.58
2018-04-10T02:07:50.140Z,94543.45
2018-04-10T02:10:18.618Z,94544.59
2018-04-10T02:12:47.278Z,94550.52
2018-04-10T02:15:15.736Z,94545.59
2018-04-10T02:17:44.198Z,94544.70
2018-04-10T02:20:12.629Z,94544.17
2018-04-10T02:22:41.070Z,94549.95
2018-04-10T02:25:09.560Z,94548.28
2018-04-10T02:27:37.984Z,94552.88
2018-04-10T02:30:06.464Z,94549.30
2018-04-10T02:32:34.922Z,94552.77
2018-04-10T02:35:03.582Z,94549.41
2018-04-10T02:37:32.014Z,94556.00
2018-04-10T02:40:00.516Z,94554.87
2018-04-10T02:42:28.994Z,94552.77
2018-04-10T02:44:57.499Z,94562.14
2018-04-10T02:47:25.911Z,94558.48
2018-04-10T02:49:54.306Z,94560.56
2018-04-10T02:52:22.766Z,94555.24
2018-04-10T02:54:51.237Z,94562.11
2018-04-10T02:57:19.837Z,94557.32
2018-04-10T02:59:48.295Z,94554.97
2018-04-10T03:02:16.767Z,94557.58
2018-04-10T03:04:45.332Z,94559.91
2018-04-10T03:07:13.792Z,94565.19
2018-04-10T03:09:42.334Z,94565.98
2018-04-10T03:12:10.807Z,94565.41
2018-04-10T03:14:39.256Z,94562.32
2018-04-10T03:17:07.667Z,94557.20
2018-04-10T03:19:36.175Z,94557.73
2018-04-10T03:22:04.743Z,94565.42
2018-04-10T03:24:33.229Z,94562.72
2018-04-10T03:27:01.670Z,94558.60
2018-04-10T03:29:30.249Z,94553.81
2018-04-10T03:31:58.702Z,94553.73
2018-04-10T03:34:27.217Z,94549.02
2018-04-10T03:36:55.682Z,94547.29
2018-04-10T03:39:24.180Z,94550.73
2018-04-10T03:41:52.660Z,94528.00
2018-04-10T03:44:21.151Z,94552.73
2018-04-10T03:46:49.576Z,94547.08
2018-04-10T03:49:18.068Z,94551.84
2018-04-10T03:51:46.511Z,94559.81
2018-04-10T03:54:14.986Z,94563.75
2018-04-10T03:56:43.420Z,94555.62
2018-04-10T03:59:11.831Z,94558.89
2018-04-10T04:01:40.283Z,94567.50
2018-04-10T04:04:08.713Z,94563.21
2018-04-10T04:06:37.122Z,94565.30
2018-04-10T04:09:05.625Z,94572.20
2018-04-10T04:11:34.095Z,94565.44
2018-04-10T04:14:02.580Z,94580.75
2018-04-10T04:16:43.019Z,94583.75
2018-04-10T04:19:23.392Z,94576.20
2018-04-10T04:22:04.113Z,94578.19
2018-04-10T04:24:32.562Z,94580.72
2018-04-10T04:27:00.942Z,94587.44
2018-04-10T04:29:29.496Z,94589.20
2018-04-10T04:31:57.926Z,94591.48
2018-04-10T04:34:26.361Z,94590.72
2018-04-10T04:36:54.793Z,94587.77
2018-04-10T04:39:23.191Z,94591.01
2018-04-10T04:41:51.659Z,94592.80
2018-04-10T04:44:20.104Z,94601.64
2018-04-10T04:46:48.555Z,94603.11
2018-04-10T04:49:17.013Z,94603.21
2018-04-10T04:51:45.387Z,94598.88
2018-04-10T04:54:13.871Z,94600.09
2018-04-10T04:56:42.293Z,94596.72
2018-04-10T04:59:10.790Z,94597.87
2018-04-10T05:01:39.176Z,94596.73
2018-04-10T05:04:07.564Z,94597.34
2018-04-10T05:06:36.060Z,94605.20
2018-04-10T05:09:07.477Z,94604.67
2018-04-10T05:11:35.927Z,94603.64
2018-04-10T05:14:04.382Z,94615.09
2018-04-10T05:16:32.809Z,94607.91
2018-04-10T05:19:01.539Z,94589.58
2018-04-10T05:21:29.985Z,94611.37
2018-04-10T05:23:58.447Z,94601.65
2018-04-10T05:26:26.892Z,94595.89
2018-04-10T05:28:55.326Z,94608.78
2018-04-10T05:31:23.727Z,94616.16
2018-04-10T05:33:52.165Z,94610.73
2018-04-10T05:36:20.619Z,94613.98
2018-04-10T05:38:49.103Z,94622.27
2018-04-10T05:41:17.794Z,94611.08
2018-04-10T05:43:46.312Z,94613.06
2018-04-10T05:46:14.711Z,94611.38
2018-04-10T05:48:43.163Z,94608.08
2018-04-10T05:51:11.543Z,94609.80
2018-04-10T05:53:39.996Z,94615.02
2018-04-10T05:56:08.404Z,94616.34
2018-04-10T05:58:36.845Z,94587.75
2018-04-10T06:01:05.294Z,94609.64
2018-04-10T06:03:33.719Z,94611.16
2018-04-10T06:06:02.184Z,94611.42
2018-04-10T06:08:30.632Z,94602.86
2018-04-10T06:10:59.044Z,94607.20
2018-04-10T06:13:27.478Z,94599.59
2018-04-10T06:15:55.875Z,94600.60
2018-04-10T06:18:24.330Z,94605.87
2018-04-10T06:20:52.796Z,94598.96
2018-04-10T06:23:21.256Z,94597.63
2018-04-10T06:25:49.881Z,94591.87
2018-04-10T06:28:18.351Z,94588.86
2018-04-10T06:30:46.723Z,94582.58
2018-04-10T06:33:15.124Z,94585.36
2018-04-10T06:35:43.559Z,94586.66
2018-04-10T06:38:12.002Z,94567.23
2018-04-10T06:40:43.694Z,94586.34
2018-04-10T06:43:12.146Z,94584.39
2018-04-10T06:45:40.583Z,94573.49
2018-04-10T06:48:09.052Z,94577.34
2018-04-10T06:50:37.462Z,94571.38
2018-04-10T06:53:05.930Z,94567.76
2018-04-10T06:55:34.398Z,94561.49
2018-04-10T06:58:02.795Z,94562.94
2018-04-10T07:00:31.246Z,94562.06
2018-04-10T07:02:59.739Z,94567.39
2018-04-10T07:05:28.187Z,94569.73
2018-04-10T07:07:56.660Z,94565.33
2018-04-10T07:10:25.462Z,94570.23
2018-04-10T07:12:54.274Z,94564.47
2018-04-10T07:15:22.743Z,94566.49
2018-04-10T07:17:51.196Z,94562.08
2018-04-10T07:20:19.671Z,94524.91
2018-04-10T07:22:48.080Z,94557.18
2018-04-10T07:25:16.534Z,94558.23
2018-04-10T07:27:44.994Z,94551.80
2018-04-10T07:30:13.631Z,94554.95
2018-04-10T07:32:42.354Z,94552.97
2018-04-10T07:35:10.889Z,94559.22
2018-04-10T07:37:39.312Z,94545.27
2018-04-10T07:40:07.843Z,94545.45
2018-04-10T07:42:36.238Z,94554.75
2018-04-10T07:45:04.731Z,94557.39
2018-04-10T07:47:33.555Z,94560.14
2018-04-10T07:50:01.975Z,94553.80
2018-04-10T07:52:30.385Z,94523.52
2018-04-10T07:54:59.265Z,94548.80
2018-04-10T07:57:27.727Z,94540.09
2018-04-10T07:59:56.248Z,94545.41
2018-04-10T08:02:25.056Z,94554.50
2018-04-10T08:04:53.510Z,94542.25
2018-04-10T08:07:21.931Z,94544.59
2018-04-10T08:09:50.625Z,94533.72
2018-04-10T08:12:19.054Z,94532.40
2018-04-10T08:14:47.517Z,94526.32
2018-04-10T08:17:16.176Z,94524.66
2018-04-10T08:19:44.566Z,94523.23
2018-04-10T08:22:13.024Z,94524.89
2018-04-10T08:24:41.499Z,94519.74
2018-04-10T08:27:09.971Z,94527.31
2018-04-10T08:29:38.395Z,94519.67
2018-04-10T08:32:06.839Z,94519.06
2018-04-10T08:34:35.299Z,94508.16
2018-04-10T08:37:03.726Z,94505.87
2018-04-10T08:39:32.152Z,94500.30
2018-04-10T08:42:00.762Z,94490.22
2018-04-10T08:44:29.167Z,94500.22
2018-04-10T08:46:57.580Z,94498.73
2018-04-10T08:49:25.968Z,94494.73
2018-04-10T08:51:54.359Z,94484.12
2018-04-10T08:54:22.796Z,94489.13
2018-04-10T08:56:51.259Z,94490.00
2018-04-10T08:59:19.667Z,94491.70
2018-04-10T09:01:48.119Z,94484.84
2018-04-10T09:04:16.527Z,94487.34
2018-04-10T09:06:44.951Z,94484.77
2018-04-10T09:09:13.415Z,94479.01
2018-04-10T09:11:42.049Z,94488.75
2018-04-10T09:14:10.596Z,94483.70
2018-04-10T09:16:39.044Z,94485.67
2018-04-10T09:19:07.520Z,94487.39
2018-04-10T09:21:35.972Z,94486.02
2018-04-10T09:24:04.416Z,94480.93
2018-04-10T09:26:32.850Z,94476.67
2018-04-10T09:29:01.251Z,94473.09
2018-04-10T09:31:29.691Z,94471.38
2018-04-10T09:33:58.095Z,94465.50
2018-04-10T09:36:26.527Z,94466.44
2018-04-10T09:38:55.063Z,94464.89
2018-04-10T09:41:23.553Z,94463.91
2018-04-10T09:43:51.936Z,94456.98
2018-04-10T09:46:20.365Z,94451.02
2018-04-10T09:48:48.799Z,94447.50
2018-04-10T09:51:17.443Z,94448.56
2018-04-10T09:53:45.907Z,94444.81
2018-04-10T09:56:14.362Z,94426.09
2018-04-10T09:58:42.867Z,94441.13
2018-04-10T10:01:11.298Z,94427.29
2018-04-10T10:03:39.723Z,94423.66
2018-04-10T10:06:08.131Z,94429.34
2018-04-10T10:08:36.621Z,94435.91
2018-04-10T10:11:05.167Z,94423.84
2018-04-10T10:13:33.691Z,94419.09
2018-04-10T10:16:02.151Z,94413.05
2018-04-10T10:18:30.564Z,94408.41
2018-04-10T10:20:59.048Z,94411.42
2018-04-10T10:23:27.481Z,94403.16
2018-04-10T10:25:55.955Z,94400.02
2018-04-10T10:28:24.335Z,94396.20
2018-04-10T10:30:52.734Z,94384.09
2018-04-10T10:33:21.155Z,94381.95
2018-04-10T10:35:49.579Z,94378.40
2018-04-10T10:38:18.023Z,94375.19
2018-04-10T10:40:46.442Z,94377.17
2018-04-10T10:43:14.927Z,94371.55
2018-04-10T10:45:43.363Z,94369.66
2018-04-10T10:48:11.800Z,94368.77
2018-04-10T10:50:40.239Z,94371.13
2018-04-10T10:53:08.717Z,94365.72
2018-04-10T10:55:37.199Z,94375.78
2018-04-10T10:58:05.773Z,94364.66
2018-04-10T11:00:34.214Z,94372.66
2018-04-10T11:03:03.016Z,94379.88
2018-04-10T11:05:31.474Z,94376.95
2018-04-10T11:07:59.900Z,94379.17
2018-04-10T11:10:28.313Z,94377.47
2018-04-10T11:12:56.771Z,94368.67
2018-04-10T11:15:25.215Z,94363.23
2018-04-10T11:17:53.635Z,94354.39
2018-04-10T11:20:22.114Z,94350.45
2018-04-10T11:22:50.498Z,94337.31
2018-04-10T11:25:18.887Z,94333.17
2018-04-10T11:27:47.348Z,94346.92
2018-04-10T11:30:15.775Z,94342.64
2018-04-10T11:32:44.188Z,94337.72
2018-04-10T11:35:12.656Z,94332.44
2018-04-10T11:37:41.105Z,94331.84
2018-04-10T11:40:09.640Z,94320.36
2018-04-10T11:42:38.062Z,94323.23
2018-04-10T11:45:06.552Z,94322.07
2018-04-10T11:47:34.995Z,94314.84
2018-04-10T11:50:03.497Z,94304.52
2018-04-10T11:52:31.941Z,94299.30
2018-04-10T11:55:00.393Z,94293.95
2018-04-10T11:57:28.886Z,94301.48
2018-04-10T11:59:57.353Z,94286.09
2018-04-10T12:02:26.007Z,94272.65
2018-04-10T12:04:54.455Z,94272.86
2018-04-10T12:07:22.903Z,94264.27
2018-04-10T12:09:51.296Z,94261.56
2018-04-10T12:12:19.790Z,94254.98
2018-04-10T12:14:48.175Z,94248.12
2018-04-10T12:17:16.963Z,94237.54
2018-04-10T12:19:45.434Z,94234.61
2018-04-10T12:22:13.931Z,94237.05
2018-04-10T12:24:42.691Z,94231.63
2018-04-10T12:27:11.144Z,94228.86
2018-04-10T12:29:39.616Z,94229.36
2018-04-10T12:32:08.062Z,94225.81
2018-04-10T12:34:36.492Z,94222.62
2018-04-10T12:37:04.972Z,94226.20
2018-04-10T12:39:33.393Z,94220.64
2018-04-10T12:42:01.790Z,94225.20
2018-04-10T12:44:30.251Z,94222.12
2018-04-10T12:46:58.670Z,94218.70
2018-04-10T12:49:27.059Z,94220.97
2018-04-10T12:51:55.502Z,94220.17
2018-04-10T12:54:23.930Z,94223.41
2018-04-10T12:56:52.371Z,94231.37
2018-04-10T12:59:20.825Z,94228.79
2018-04-10T13:01:49.216Z,94229.34
2018-04-10T13:04:17.662Z,94226.84
2018-04-10T13:06:46.110Z,94220.69
2018-04-10T13:09:14.524Z,94214.11
2018-04-10T13:11:42.987Z,94213.12
2018-04-10T13:14:11.412Z,94212.70
2018-04-10T13:16:40.170Z,94214.30
2018-04-10T13:19:08.573Z,94209.08
2018-04-10T13:21:37.256Z,94215.28
2018-04-10T13:24:06.118Z,94211.58
2018-04-10T13:26:34.627Z,94217.05
2018-04-10T13:29:03.057Z,94209.27
2018-04-10T13:31:31.870Z,94210.28
2018-04-10T13:34:00.258Z,94220.28
2018-04-10T13:36:28.731Z,94206.22
2018-04-10T13:38:57.862Z,94211.00
2018-04-10T13:41:26.289Z,94206.12
2018-04-10T13:43:54.730Z,94216.83
2018-04-10T13:46:23.837Z,94200.84
2018-04-10T13:48:52.267Z,94202.24
2018-04-10T13:51:20.667Z,94206.51
2018-04-10T13:53:50.196Z,94195.73
2018-04-10T13:56:18.613Z,94184.80
2018-04-10T13:58:47.072Z,94190.75
2018-04-10T14:01:15.799Z,94183.10
2018-04-10T14:03:44.365Z,94189.38
2018-04-10T14:06:12.775Z,94200.72
2018-04-10T14:08:41.415Z,94172.81
2018-04-10T14:11:09.965Z,94163.11
2018-04-10T14:13:38.434Z,94175.57
2018-04-10T14:16:06.850Z,94182.97
2018-04-10T14:18:35.268Z,94183.00
2018-04-10T14:21:03.790Z,94176.61
2018-04-10T14:23:32.322Z,94175.34
2018-04-10T14:26:00.798Z,94168.19
2018-04-10T14:28:29.247Z,94162.26
2018-04-10T14:30:58.829Z,94170.03
2018-04-10T14:33:27.283Z,94174.19
2018-04-10T14:35:55.710Z,94169.79
2018-04-10T14:38:24.568Z,94169.38
2018-04-10T14:40:52.992Z,94173.09
2018-04-10T14:43:21.408Z,94167.95
2018-04-10T14:45:49.930Z,94175.05
2018-04-10T14:48:18.339Z,94175.24
2018-04-10T14:50:46.809Z,94148.08
2018-04-10T14:53:15.253Z,94166.19
2018-04-10T14:55:43.777Z,94158.09
2018-04-10T14:58:12.222Z,94164.47
2018-04-10T15:00:40.671Z,94168.13
2018-04-10T15:03:09.080Z,94155.00
2018-04-10T15:05:37.560Z,94160.88
2018-04-10T15:08:06.003Z,94157.73
2018-04-10T15:10:34.470Z,94142.88
2018-04-10T15:13:02.947Z,94155.28
2018-04-10T15:15:31.498Z,94153.94
2018-04-10T15:17:59.908Z,94153.95
2018-04-10T15:20:28.387Z,94146.69
2018-04-10T15:22:56.840Z,94149.30
2018-04-10T15:25:25.333Z,94158.14
2018-04-10T15:27:53.821Z,94151.65
2018-04-10T15:30:22.253Z,94150.21
2018-04-10T15:32:50.705Z,94149.19
2018-04-10T15:35:19.116Z,94147.41
2018-04-10T15:37:47.589Z,94149.81
2018-04-10T15:40:16.046Z,94153.40
2018-04-10T15:42:45.671Z,94156.64
2018-04-10T15:45:14.134Z,94154.77
2018-04-10T15:47:42.611Z,94152.97
2018-04-10T15:50:11.040Z,94149.80
2018-04-10T15:52:39.547Z,94147.04
2018-04-10T15:55:07.968Z,94147.08
2018-04-10T15:57:36.595Z,94151.18
2018-04-10T16:00:05.124Z,94144.88
2018-04-10T16:02:33.518Z,94146.81
2018-04-10T16:05:01.914Z,94125.80
2018-04-10T16:07:30.363Z,94117.94
2018-04-10T16:09:58.764Z,94138.44
2018-04-10T16:12:27.290Z,94137.95
2018-04-10T16:14:55.714Z,94132.33
2018-04-10T16:17:24.149Z,94135.51
2018-04-10T16:19:52.541Z,94138.87
2018-04-10T16:22:20.987Z,94149.95
2018-04-10T16:24:49.425Z,94145.52
2018-04-10T16:27:17.847Z,94152.60
2018-04-10T16:29:46.330Z,94175.76
2018-04-10T16:32:14.772Z,94167.34
2018-04-10T16:34:43.178Z,94167.61
2018-04-10T16:37:11.647Z,94173.60
2018-04-10T16:39:40.076Z,94176.83
2018-04-10T16:42:08.616Z,94177.31
2018-04-10T16:44:37.799Z,94176.88
2018-04-10T16:47:06.202Z,94180.31
2018-04-10T16:49:34.665Z,94168.59
2018-04-10T16:52:03.077Z,94171.61
2018-04-10T16:54:31.514Z,94189.11
2018-04-10T16:56:59.993Z,94186.89
2018-04-10T16:59:28.415Z,94188.88
2018-04-10T17:01:56.888Z,94191.07
2018-04-10T17:04:25.302Z,94192.09
2018-04-10T17:06:53.768Z,94193.16
2018-04-10T17:09:22.164Z,94194.95
2018-04-10T17:11:50.566Z,94190.14
2018-04-10T17:14:19.039Z,94185.12
2018-04-10T17:16:47.501Z,94181.55
2018-04-10T17:19:15.919Z,94175.30
2018-04-10T17:21:44.371Z,94183.09
2018-04-10T17:24:12.847Z,94171.71
2018-04-10T17:26:41.255Z,94174.53
2018-04-10T17:29:09.739Z,94166.83
2018-04-10T17:31:38.154Z,94173.20
2018-04-10T17:34:06.613Z,94168.68
2018-04-10T17:36:35.089Z,94163.30
2018-04-10T17:39:03.899Z,94168.21
2018-04-10T17:41:32.394Z,94188.64
2018-04-10T17:44:00.775Z,94183.25
2018-04-10T17:46:29.888Z,94190.83
2018-04-10T17:48:58.334Z,94195.82
2018-04-10T17:51:26.714Z,94198.92
2018-04-10T17:53:55.192Z,94208.37
2018-04-10T17:56:23.626Z,94219.26
2018-04-10T17:58:52.138Z,94234.42
2018-04-10T18:01:20.561Z,94239.28
2018-04-10T18:03:48.952Z,94246.17
2018-04-10T18:06:17.381Z,94242.18
2018-04-10T18:08:45.827Z,94242.25
2018-04-10T18:11:14.232Z,94251.98
2018-04-10T18:13:42.710Z,94257.07
2018-04-10T18:16:11.209Z,94252.32
2018-04-10T18:18:39.614Z,94261.32
2018-04-10T18:21:08.122Z,94271.64
2018-04-10T18:23:36.663Z,94269.61
2018-04-10T18:26:05.240Z,94260.50
2018-04-10T18:28:33.670Z,94262.37
2018-04-10T18:31:02.078Z,94264.61
2018-04-10T18:33:30.483Z,94261.74
2018-04-10T18:35:59.049Z,94267.91
2018-04-10T18:38:27.478Z,94262.94
2018-04-10T18:40:55.925Z,94260.39
2018-04-10T18:43:24.332Z,94254.54
2018-04-10T18:45:52.827Z,94269.77
2018-04-10T18:48:21.218Z,94279.16
2018-04-10T18:50:49.598Z,94279.34
2018-04-10T18:53:18.022Z,94282.06
2018-04-10T18:55:46.459Z,94288.89
2018-04-10T18:58:14.922Z,94291.33
2018-04-10T19:00:43.413Z,94292.34
2018-04-10T19:03:11.807Z,94286.98
2018-04-10T19:05:40.271Z,94297.75
2018-04-10T19:08:08.667Z,94298.03
2018-04-10T19:10:37.175Z,94310.78
2018-04-10T19:13:05.608Z,94302.56
2018-04-10T19:15:34.112Z,94300.11
2018-04-10T19:18:02.698Z,94293.81
2018-04-10T19:20:31.215Z,94306.23
2018-04-10T19:22:59.610Z,94314.44
2018-04-10T19:25:28.040Z,94317.31
2018-04-10T19:27:56.445Z,94312.72
2018-04-10T19:30:24.899Z,94311.19
2018-04-10T19:32:53.351Z,94307.81
2018-04-10T19:35:21.821Z,94292.25
2018-04-10T19:37:50.200Z,94313.34
2018-04-10T19:40:18.650Z,94310.71
2018-04-10T19:42:47.075Z,94311.39
2018-04-10T19:45:15.494Z,94308.54
2018-04-10T19:47:43.926Z,94309.14
2018-04-10T19:50:12.522Z,94312.96
2018-04-10T19:52:41.079Z,94306.61
2018-04-10T19:55:09.546Z,94314.87
2018-04-10T19:57:37.960Z,94312.80
2018-04-10T20:00:06.430Z,94318.62
2018-04-10T20:02:34.858Z,94320.23
2018-04-10T20:05:03.341Z,94330.23
2018-04-10T20:07:31.746Z,94326.27
2018-04-10T20:10:00.163Z,94328.06
2018-04-10T20:12:28.591Z,94336.11
2018-04-10T20:14:56.979Z,94333.45
2018-04-10T20:17:25.424Z,94338.23
2018-04-10T20:19:53.897Z,94345.84
2018-04-10T20:22:22.383Z,94337.78
2018-04-10T20:24:50.829Z,94340.11
2018-04-10T20:27:19.248Z,94337.66
2018-04-10T20:29:47.654Z,94323.34
2018-04-10T20:32:16.057Z,94324.05
2018-04-10T20:34:44.464Z,94322.85
2018-04-10T20:37:12.842Z,94317.13
2018-04-10T20:39:41.286Z,94325.89
2018-04-10T20:42:09.682Z,94325.16
2018-04-10T20:44:38.119Z,94331.08
2018-04-10T20:47:06.622Z,94330.55
2018-04-10T20:49:35.082Z,94334.61
2018-04-10T20:52:03.510Z,94332.89
2018-04-10T20:54:31.929Z,94331.97
2018-04-10T20:57:00.336Z,94332.29
2018-04-10T20:59:28.802Z,94315.10
2018-04-10T21:01:57.186Z,94315.87
2018-04-10T21:04:25.576Z,94310.67
2018-04-10T21:06:54.003Z,94300.77
2018-04-10T21:09:22.502Z,94301.63
2018-04-10T21:11:50.943Z,94301.94
2018-04-10T21:14:19.356Z,94299.22
2018-04-10T21:16:47.769Z,94293.47
2018-04-10T21:19:16.200Z,94279.41
2018-04-10T21:21:44.702Z,94292.11
2018-04-10T21:24:13.141Z,94296.64
2018-04-10T21:26:41.595Z,94303.66
2018-04-10T21:29:10.079Z,94299.27
2018-04-10T21:31:38.553Z,94298.27
2018-04-10T21:34:06.987Z,94299.47
2018-04-10T21:36:35.438Z,94303.72
2018-04-10T21:39:03.916Z,94309.57
2018-04-10T21:41:32.334Z,94315.34
2018-04-10T21:44:00.762Z,94321.95
2018-04-10T21:46:29.156Z,94319.77
2018-04-10T21:48:57.626Z,94322.75
2018-04-10T21:51:26.013Z,94305.98
2018-04-10T21:53:54.429Z,94315.52
2018-04-10T21:56:22.852Z,94319.22
2018-04-10T21:58:51.319Z,94328.05
2018-04-10T22:01:19.931Z,94334.05
2018-04-10T22:03:48.331Z,94332.96
2018-04-10T22:06:16.863Z,94334.33
2018-04-10T22:08:45.365Z,94336.05
2018-04-10T22:11:13.775Z,94335.02
2018-04-10T22:13:42.163Z,94337.97
2018-04-10T22:16:10.603Z,94341.37
2018-04-10T22:18:38.999Z,94339.13
2018-04-10T22:21:07.400Z,94342.16
2018-04-10T22:23:35.837Z,94339.89
2018-04-10T22:26:04.249Z,94329.40
2018-04-10T22:28:32.863Z,94322.75
2018-04-10T22:31:01.293Z,94322.82
2018-04-10T22:33:29.685Z,94314.77
2018-04-10T22:35:58.366Z,94322.03
2018-04-10T22:38:26.789Z,94313.05
2018-04-10T22:40:55.167Z,94309.25
2018-04-10T22:43:24.223Z,94303.59
2018-04-10T22:45:52.639Z,94299.00
2018-04-10T22:48:21.103Z,94300.66
2018-04-10T22:50:49.846Z,94301.22
2018-04-10T22:53:18.233Z,94293.68
2018-04-10T22:55:46.635Z,94296.72
2018-04-10T22:58:15.093Z,94292.07
2018-04-10T23:00:49.091Z,94286.43
2018-04-10T23:03:17.541Z,94291.22
2018-04-10T23:05:45.993Z,94280.79
2018-04-10T23:08:14.456Z,94293.39
2018-04-10T23:10:42.930Z,94295.36
2018-04-10T23:13:11.375Z,94293.03
2018-04-10T23:15:39.830Z,94296.91
2018-04-10T23:18:08.243Z,94295.55
2018-04-10T23:20:36.692Z,94294.43
2018-04-10T23:23:05.107Z,94303.29
2018-04-10T23:25:33.643Z,94298.72
2018-04-10T23:28:02.075Z,94292.53
2018-04-10T23:30:30.491Z,94301.50
2018-04-10T23:32:58.958Z,94301.13
2018-04-10T23:35:27.385Z,94299.86
2018-04-10T23:37:55.835Z,94301.30
2018-04-10T23:40:24.240Z,94293.75
2018-04-10T23:42:52.675Z,94286.20
2018-04-10T23:45:21.088Z,94284.36
2018-04-10T23:47:49.507Z,94285.05
2018-04-10T23:50:17.892Z,94302.28
2018-04-10T23:52:46.286Z,94281.70
2018-04-10T23:55:14.679Z,94278.03
2018-04-10T23:57:43.115Z,94267.34
